Eldorado, OK (73537)

5:43 PM CST on January 26, 2015 (GMT -0600)
Corinth | Change Station
CLOSE
Current Station
Personal Weather Station
Location: Eldorado, OK
Elevation: 1476 ft
Nearby Weather Stations

Elev 1476 ft 34.50 °N, 99.76 °W | Updated 12 seconds ago

Clear
Clear
72.5 °F
Feels Like 75 °F
N
9.2
Wind Variable Wind from NNW
Gusts 9.2 mph

Today
High -- | Low -- °F
--% Chance of Precip.
Yesterday
High -- | Low -- °F
Precip. -- in
7:40 AM 6:02 PM
Waxing Crescent, 48% visible
Pressure 30.09 in
Visibility 10.0 miles
Clouds Clear
Heat Index 75 °F
Dew Point 28 °F
Humidity 19%
Rainfall 0.00 in
Snow Depth Not available.
UV 0 out of 12
Pollen 6.10 out of 12
Air Quality Not available.
Flu Activity Not available.
METAR KAXS 262335Z AUTO 34007KT 10SM CLR 23/00 A3009 RMK AO2 T02290000

More Conditions Fewer Conditions

Pressure 30.09 in
Visibility 10.0 miles
Clouds Clear
Heat Index 75 °F
Dew Point 28 °F
Humidity 19%
Rainfall 0.00 in
Snow Depth Not available.
UV 0 out of 12
Pollen 6.10 out of 12
Air Quality Not available.
Flu Activity Not available.
METAR KAXS 262335Z AUTO 34007KT 10SM CLR 23/00 A3009 RMK AO2 T02290000

More Conditions Fewer Conditions

10-Day Weather Forecast

Almanac

Astronomy

Jan. 26, 2015 Rise Set
Actual Time
Civil Twilight
Nautical Twilight
Astronomical Twilight
Moon
Length of Visible Light
Length of Day
Tomorrow will be .
, % of the Moon is Illuminated

Today's Extremes

State Highs State Lows

Community

WunderPhotos

Upload Photos

1,790,408 photos uploaded!

WunderBlogs® & News

Nearby

Air Quality

  Air Quality AQ Index Pollutant
Not available.

Snow Depth

Station Depth Elevation

Earthquake Activity

City Distance Mag. Time & Date
Minimum magnitude displayed is 2.5.

Coastal Water Temperatures

Place Temperature

Nearby Weather Stations